If you wish to contribute or participate in the discussions about articles you are invited to join SKYbrary as a registered user

RAF Northholt

From SKYbrary Wiki
EGWU
Airport
ICAO: EGWU – IATA: NHT
Summary
Name RAF Northholt
Region Europe
Territory United Kingdom GB.gif
Location Northolt, Middlesex, England
Serving Northolt
Elevation 37.795 m
124 ft
124 ft37.795 m
Coordinates 51° 33' 6", -0° 25' 6"
Runways
Designator Length Width Surface ROPS
7/25 1690 m5,544.619 ft 46 m150.919 ft ASP yes/yes
METAR
Observation EGWU 191850Z 24002KT CAVOK 05/03 Q1023 NOSIG
Station Northolt
Date/Time 19 November 2017 18:50:00
Wind direction 240°
Wind speed 02 kts
Lowest cloud amount clouds and visibility OK
Temperature 5°C
Dew point 3°C
Humidity 86%
QNH 1023 hPa
Weather condition n/a

RAF Northholt

ICAO: EGWU IATA: NHT

Description

RAF Northolt is a military airport available to non scheduled civil traffic by prior arrangement.

Climatology

Temperate Marine climate/Oceanic climate (Köppen climate classification Cfb). Moderately cool summer and comparatively warm winter with a temperature range of only 14°C287.15 K
57.2 °F
516.87 °R
. Prevailing south-westerly winds from the Atlantic Ocean.

Maps

Terrain

Loading map...

Airport Layout

Loading map...